Temp     Hi    Low   Out    Dew  Wind  Wind   Wind    Hi    Hi   Wind   Heat    THW   THSW                Rain  Solar   Solar Hi Solar   UV    UV    Hi     Heat    Cool    In     In    In     In     In   In Air          Wind  Wind    ISS   Arc.
  Date    Time     Out   Temp   Temp   Hum    Pt. Speed   Dir    Run Speed   Dir  Chill  Index  Index  Index   Bar    Rain  Rate   Rad.  Energy    Rad.  Index  Dose   UV     D-D     D-D    Temp   Hum    Dew   Heat    EMC Density     ET   Samp   Tx   Recept  Int.
------------------------------------------------------------------------------------------------------------------------------------------------------------------------------------------------------------------------------------------------------------------------
 9/19/18 12:30a   53.4   53.9   53.4    64   41.5   0.0   ---   0.00   0.0   ---   53.4   52.4   52.4   48.0  29.868  0.00  0.00     0     0.00      0     0.0  0.00   0.0   0.242   0.000   74.3    33   43.3   72.9   6.56  .0735    0.000   670    2    100.0   30 
 9/19/18  1:00a   53.3   53.4   53.2    65   41.8   0.0   ---   0.00   0.0   ---   53.3   52.4   52.4   48.0  29.864  0.00  0.00     0     0.00      0     0.0  0.00   0.0   0.244   0.000   74.0    33   43.1   72.5   6.57  .0735    0.001   677    2    100.0   30 
 9/19/18  1:30a   53.0   53.3   53.0    64   41.1   0.0   ---   0.00   0.0   ---   53.0   52.1   52.1   47.7  29.862  0.00  0.00     0     0.00      0     0.0  0.00   0.0   0.250   0.000   73.8    33   42.9   72.2   6.57  .0736    0.000   680    2    100.0   30 
 9/19/18  2:00a   52.5   53.0   52.5    65   41.1   0.0    NW   0.00   5.0    NW   52.5   51.7   51.7   47.3  29.855  0.00  0.00     0     0.00      0     0.0  0.00   0.0   0.260   0.000   73.6    33   42.7   71.9   6.58  .0736    0.001   671    2    100.0   30 
 9/19/18  2:30a   52.0   52.5   51.9    66   41.0   0.0   ---   0.00   0.0   ---   52.0   51.2   51.2   46.8  29.854  0.00  0.00     0     0.00      0     0.0  0.00   0.0   0.271   0.000   73.5    33   42.6   71.8   6.58  .0736    0.000   684    2    100.0   30 
 9/19/18  3:00a   51.9   52.1   51.9    67   41.3   0.0   ---   0.00   0.0   ---   51.9   51.2   51.2   46.8  29.847  0.00  0.00     0     0.00      0     0.0  0.00   0.0   0.273   0.000   73.3    33   42.4   71.5   6.58  .0736    0.001   677    2    100.0   30 
 9/19/18  3:30a   51.5   51.9   51.5    69   41.7   0.0   ---   0.00   0.0   ---   51.5   50.9   50.9   46.5  29.844  0.00  0.00     0     0.00      0     0.0  0.00   0.0   0.281   0.000   73.1    33   42.3   71.2   6.59  .0736    0.000   677    2    100.0   30 
 9/19/18  4:00a   51.8   51.9   51.5    68   41.6   0.0   ---   0.00   0.0   ---   51.8   51.1   51.1   46.7  29.839  0.00  0.00     0     0.00      0     0.0  0.00   0.0   0.275   0.000   72.8    33   42.0   70.7   6.59  .0737    0.001   685    2    100.0   30 
 9/19/18  4:30a   51.5   51.9   51.5    69   41.7   0.0   ---   0.00   0.0   ---   51.5   50.9   50.9   46.5  29.832  0.00  0.00     0     0.00      0     0.0  0.00   0.0   0.281   0.000   72.6    33   41.8   70.4   6.60  .0737    0.000   670    2    100.0   30 
 9/19/18  5:00a   50.6   51.5   50.6    71   41.5   0.0    NW   0.00   1.0    NW   50.6   50.2   50.2   45.8  29.834  0.00  0.00     0     0.00      0     0.0  0.00   0.0   0.300   0.000   72.4    33   41.7   70.0   6.60  .0737    0.001   682    2    100.0   30 
 9/19/18  5:30a   50.7   50.7   50.6    69   40.9   0.0   ---   0.00   0.0   ---   50.7   50.2   50.2   45.8  29.837  0.00  0.00     0     0.00      0     0.0  0.00   0.0   0.298   0.000   72.3    33   41.6   69.9   6.60  .0737    0.000   686    2    100.0   30 
 9/19/18  6:00a   50.6   50.8   50.6    69   40.8   0.0    NW   0.00   5.0    NW   50.6   50.1   50.1   45.7  29.836  0.00  0.00     0     0.00      0     0.0  0.00   0.0   0.300   0.000   72.1    33   41.4   69.6   6.61  .0738    0.001   667    2    100.0   30 
 9/19/18  6:30a   49.7   50.6   49.7    71   40.7   0.0   ---   0.00   0.0   ---   49.7   49.3   49.3   44.9  29.840  0.00  0.00     0     0.00      0     0.0  0.00   0.0   0.319   0.000   71.9    33   41.2   69.3   6.61  .0738    0.000   684    2    100.0   30 
 9/19/18  7:00a   49.0   49.7   49.0    72   40.4   0.0   ---   0.00   0.0   ---   49.0   48.6   48.6   44.2  29.849  0.00  0.00     3     0.13     11     0.0  0.00   0.0   0.333   0.000   71.6    33   41.0   68.8   6.62  .0739    0.000   681    2    100.0   30 
 9/19/18  7:30a   49.3   49.3   48.9    73   41.0   0.0    NW   0.00   1.0    NW   49.3   49.0   49.0   46.8  29.856  0.00  0.00    15     0.65     19     0.0  0.00   0.0   0.327   0.000   71.6    33   41.0   68.8   6.62  .0739    0.000   674    2    100.0   30 
 9/19/18  8:00a   51.1   51.1   49.3    73   42.7   0.0   ---   0.00   0.0   ---   51.1   50.7   50.7   48.8  29.851  0.00  0.00    23     0.99     26     0.0  0.00   0.0   0.290   0.000   71.2    35   42.1   68.5   7.03  .0739    0.001   684    2    100.0   30 
 9/19/18  8:30a   55.1   55.1   51.1    69   45.1   0.0   ---   0.00   0.0   ---   55.1   54.3   54.3   52.8  29.853  0.00  0.00    34     1.46     47     0.0  0.00   0.0   0.206   0.000   71.9    35   42.8   69.5   7.01  .0738    0.000   682    2    100.0   30 
 9/19/18  9:00a   59.5   59.5   55.2    59   45.2   3.0   NNW   1.50   8.0   NNW   59.5   58.1   58.1   57.3  29.848  0.00  0.00    59     2.54    207     0.1  0.02   0.7   0.115   0.000   72.4    37   44.6   70.4   7.30  .0737    0.002   672    2    100.0   30 
 9/19/18  9:30a   62.7   62.7   59.6    53   45.3   4.0   NNW   2.00  10.0   NNW   62.7   61.1   61.1   61.7  29.839  0.00  0.00   112     4.82    294     0.5  0.08   0.8   0.048   0.000   73.1    36   44.5   71.4   7.13  .0735    0.000   677    2    100.0   30 
 9/19/18 10:00a   64.7   64.7   62.7    49   45.1   7.0   NNW   3.50  15.0   NNW   64.7   62.9   62.9   62.3  29.838  0.00  0.00    78     3.35    163     0.5  0.08   1.1   0.006   0.000   73.5    36   44.9   72.0   7.11  .0735    0.005   685    2    100.0   30 
 9/19/18 10:30a   64.9   65.0   64.7    49   45.3  10.0   NNW   5.00  19.0     N   62.7   63.1   60.9   68.4  29.842  0.00  0.00   534    22.96    578     1.3  0.21   1.9   0.002   0.000   73.8    35   44.4   72.4   6.97  .0735    0.000   676    2    100.0   30 
 9/19/18 11:00a   65.9   65.9   64.9    47   45.1  11.0   NNW   5.50  23.0   NNW   63.2   64.0   61.3   66.3  29.837  0.00  0.00   380    16.34    631     1.8  0.29   2.9   0.000   0.019   73.8    35   44.4   72.4   6.97  .0735    0.015   673    2    100.0   30 
 9/19/18 11:30a   66.6   66.6   65.6    47   45.7  13.0   NNW   6.50  29.0   NNW   62.8   64.8   61.0   67.6  29.830  0.00  0.00   548    23.57    696     2.3  0.37   3.5   0.000   0.033   74.2    35   44.8   72.9   6.97  .0734    0.000   684    2    100.0   30 
 9/19/18 12:00p   67.4   67.4   66.5    45   45.3  12.0   NNW   6.00  21.0   NNW   64.2   65.5   62.3   70.3  29.825  0.00  0.00   714    30.71    733     3.6  0.58   4.0   0.000   0.050   74.5    34   44.3   73.2   6.76  .0733    0.019   677    2    100.0   30 
 9/19/18 12:30p   68.8   68.8   67.4    43   45.4  11.0   NNW   5.50  20.0   NNW   66.2   66.7   64.1   72.4  29.832  0.00  0.00   746    32.08    759     4.1  0.66   4.2   0.000   0.079   74.9    34   44.6   73.6   6.75  .0733    0.000   649    2     97.3   30 
 9/19/18  1:00p   69.2   69.2   68.6    43   45.7  11.0   NNW   5.50  20.0   NNW   66.6   67.0   64.4   72.8  29.818  0.00  0.00   761    32.73    768     4.3  0.69   4.3   0.000   0.087   75.2    34   44.9   73.9   6.75  .0732    0.023   684    2    100.0   30 
 9/19/18  1:30p   69.5   69.6   69.0    42   45.4  11.0   NNW   5.50  20.0   NNW   66.9   67.1   64.5   72.8  29.816  0.00  0.00   760    32.68    766     4.2  0.67   4.3   0.000   0.094   75.6    35   46.0   74.4   6.94  .0731    0.000   674    2    100.0   30 
 9/19/18  2:00p   70.3   70.5   69.5    41   45.5  12.0   NNW   6.00  27.0   NNW   67.2   67.8   64.7   72.7  29.810  0.00  0.00   739    31.78    752     3.9  0.63   4.1   0.000   0.110   75.7    34   45.3   74.4   6.74  .0731    0.023   681    2    100.0   30 
 9/19/18  2:30p   70.7   70.9   70.3    40   45.2  12.0   NNW   6.00  26.0   NNW   67.6   68.2   65.1   73.0  29.799  0.00  0.00   704    30.28    724     3.5  0.56   3.7   0.000   0.119   75.9    34   45.5   74.6   6.73  .0730    0.000   684    2    100.0   30 
 9/19/18  3:00p   70.6   71.0   70.4    40   45.1  12.0   NNW   6.00  27.0    NW   67.5   68.1   65.0   72.7  29.796  0.00  0.00   657    28.25    682     2.9  0.47   3.2   0.000   0.117   76.1    34   45.7   74.9   6.73  .0730    0.022   670    2    100.0   30 
 9/19/18  3:30p   71.2   71.3   69.8    38   44.3  12.0   NNW   6.00  20.0   NNW   68.1   68.7   65.6   73.2  29.785  0.00  0.00   599    25.76    628     2.3  0.37   2.6   0.000   0.129   76.1    34   45.7   74.9   6.73  .0730    0.000   686    2    100.0   30 
 9/19/18  4:00p   71.5   71.8   71.2    37   43.8  12.0   NNW   6.00  21.0   NNW   68.5   69.1   66.1   73.4  29.779  0.00  0.00   537    23.09    571     1.7  0.27   2.0   0.000   0.135   76.3    34   45.9   75.1   6.72  .0729    0.020   679    2    100.0   30 
 9/19/18  4:30p   70.5   71.5   70.4    37   43.0  13.0   NNW   6.50  22.0   NNW   67.0   67.7   64.2   70.9  29.785  0.00  0.00   453    19.48    499     1.1  0.18   1.4   0.000   0.115   76.4    34   45.9   75.2   6.72  .0729    0.000   673    2    100.0   30 
 9/19/18  5:00p   70.3   70.8   70.3    38   43.5  12.0   NNW   6.00  19.0     N   67.2   67.5   64.4   70.6  29.786  0.00  0.00   362    15.57    404     0.6  0.10   0.8   0.000   0.110   75.9    33   44.7   74.6   6.55  .0730    0.017   685    2    100.0   30 
 9/19/18  5:30p   69.9   70.5   69.9    37   42.4  10.0    NW   5.00  20.0   NNW   67.8   67.0   64.9   70.3  29.789  0.00  0.00   270    11.61    315     0.0  0.00   0.0   0.000   0.102   75.7    33   44.5   74.4   6.55  .0731    0.000   673    2    100.0   30 
 9/19/18  6:00p   69.4   70.1   69.4    37   42.0   7.0    NW   3.50  14.0   NNW   69.4   66.6   66.6   70.2  29.795  0.00  0.00   174     7.48    225     0.0  0.00   0.0   0.000   0.092   75.0    32   43.1   73.5   6.45  .0732    0.010   679    2    100.0   30 
 9/19/18  6:30p   67.8   69.4   67.8    38   41.3   1.0    NW   0.50   7.0    NW   67.8   65.1   65.1   62.0  29.799  0.00  0.00    56     2.41    118     0.0  0.00   0.0   0.000   0.058   74.9    33   43.8   73.5   6.55  .0732    0.000   682    2    100.0   30 
 9/19/18  7:00p   65.7   67.8   65.7    42   42.0   1.0    NW   0.50   7.0   WNW   65.7   63.3   63.3   59.1  29.803  0.00  0.00     7     0.30     14     0.0  0.00   0.0   0.000   0.015   75.2    33   44.1   73.8   6.55  .0732    0.002   671    2    100.0   30 
 9/19/18  7:30p   63.8   65.7   63.8    45   42.0   4.0   WNW   2.00  11.0     W   63.8   61.6   61.6   57.3  29.808  0.00  0.00     0     0.00      0     0.0  0.00   0.0   0.025   0.000   75.4    34   45.1   74.1   6.74  .0731    0.000   686    2    100.0   30 
 9/19/18  8:00p   62.3   63.7   62.3    47   41.8   2.0     W   1.00   6.0     W   62.3   60.2   60.2   55.9  29.815  0.00  0.00     0     0.00      0     0.0  0.00   0.0   0.056   0.000   75.4    34   45.1   74.1   6.74  .0732    0.002   681    2    100.0   30 
 9/19/18  8:30p   61.8   62.3   61.8    49   42.4   3.0   WNW   1.50   9.0     W   61.8   59.8   59.8   55.5  29.827  0.00  0.00     0     0.00      0     0.0  0.00   0.0   0.067   0.000   75.4    35   45.8   74.2   6.94  .0732    0.000   675    2    100.0   30 
 9/19/18  9:00p   60.8   61.8   60.7    50   42.0   1.0   WNW   0.50   8.0   WNW   60.8   58.8   58.8   54.5  29.840  0.00  0.00     0     0.00      0     0.0  0.00   0.0   0.088   0.000   75.4    35   45.8   74.2   6.94  .0732    0.002   684    2    100.0   30 
 9/19/18  9:30p   59.5   60.7   59.5    52   41.9   0.0   ---   0.00   0.0   ---   59.5   57.7   57.7   53.4  29.843  0.00  0.00     0     0.00      0     0.0  0.00   0.0   0.115   0.000   74.5    36   45.8   73.3   7.07  .0733    0.000   676    2    100.0   30 
 9/19/18 10:00p   57.9   59.5   57.9    55   41.8   0.0     W   0.00   4.0     W   57.9   56.3   56.3   52.0  29.846  0.00  0.00     0     0.00      0     0.0  0.00   0.0   0.148   0.000   74.3    34   44.1   72.9   6.76  .0734    0.002   673    2    100.0   30 
 9/19/18 10:30p   57.0   57.9   57.0    57   41.9   0.0   ---   0.00   0.0   ---   57.0   55.5   55.5   51.2  29.846  0.00  0.00     0     0.00      0     0.0  0.00   0.0   0.167   0.000   74.2    37   46.2   73.1   7.27  .0734    0.000   683    2    100.0   30 
 9/19/18 11:00p   56.3   57.0   56.3    57   41.3   0.0   ---   0.00   0.0   ---   56.3   54.8   54.8   50.5  29.846  0.00  0.00     0     0.00      0     0.0  0.00   0.0   0.181   0.000   74.3    36   45.6   73.1   7.08  .0734    0.001   673    2    100.0   30 
 9/19/18 11:30p   55.7   56.3   55.5    58   41.1   0.0     W   0.00   2.0     W   55.7   54.3   54.3   50.0  29.841  0.00  0.00     0     0.00      0     0.0  0.00   0.0   0.194   0.000   74.3    37   46.3   73.2   7.26  .0733    0.000   650    2     97.5   30 
 9/20/18 12:00a   55.7   55.7   55.6    58   41.1   0.0   ---   0.00   0.0   ---   55.7   54.3   54.3   50.0  29.845  0.00  0.00     0     0.00      0     0.0  0.00   0.0   0.194   0.000   74.2    36   45.5   73.0   7.08  .0734    0.001   682    2    100.0   30 
 9/20/18 12:30a   55.6   56.0   55.6    57   40.6   0.0   ---   0.00   0.0   ---   55.6   54.1   54.1   49.7  29.843  0.00  0.00     0     0.00      0     0.0  0.00   0.0   0.196   0.000   74.0    36   45.3   72.8   7.09  .0734    0.000   670    2    100.0   30 
 9/20/18  1:00a   54.0   55.6   54.0    59   40.0   0.0   ---   0.00   0.0   ---   54.0   52.8   52.8   48.4  29.842  0.00  0.00     0     0.00      0     0.0  0.00   0.0   0.229   0.000   73.8    36   45.2   72.5   7.10  .0734    0.001   685    2    100.0   30 
 9/20/18  1:30a   52.9   54.0   52.9    60   39.4   0.0   ---   0.00   0.0   ---   52.9   51.8   51.8   47.4  29.845  0.00  0.00     0     0.00      0     0.0  0.00   0.0   0.252   0.000   73.6    36   45.0   72.2   7.11  .0735    0.000   680    2    100.0   30